sensor_id;sensor_type;location;lat;lon;timestamp;P1;durP1;ratioP1;P2;durP2;ratioP2
948;SDS011;461;51.436;7.312;2022-08-21T00:00:44;10.07;;;8.07;;
948;SDS011;461;51.436;7.312;2022-08-21T00:03:11;11.00;;;7.60;;
948;SDS011;461;51.436;7.312;2022-08-21T00:05:39;11.30;;;7.60;;
948;SDS011;461;51.436;7.312;2022-08-21T00:08:06;12.47;;;7.10;;
948;SDS011;461;51.436;7.312;2022-08-21T00:10:33;14.30;;;8.37;;
948;SDS011;461;51.436;7.312;2022-08-21T00:13:09;11.80;;;7.23;;
948;SDS011;461;51.436;7.312;2022-08-21T00:15:36;12.97;;;7.93;;
948;SDS011;461;51.436;7.312;2022-08-21T00:18:03;7.90;;;7.10;;
948;SDS011;461;51.436;7.312;2022-08-21T00:20:29;10.53;;;6.90;;
948;SDS011;461;51.436;7.312;2022-08-21T00:22:55;15.90;;;7.30;;
948;SDS011;461;51.436;7.312;2022-08-21T00:25:21;14.77;;;7.57;;
948;SDS011;461;51.436;7.312;2022-08-21T00:27:48;9.37;;;7.03;;
948;SDS011;461;51.436;7.312;2022-08-21T00:30:15;11.90;;;6.80;;
948;SDS011;461;51.436;7.312;2022-08-21T00:32:42;9.23;;;6.60;;
948;SDS011;461;51.436;7.312;2022-08-21T00:35:09;8.00;;;7.20;;
948;SDS011;461;51.436;7.312;2022-08-21T00:37:37;9.63;;;7.53;;
948;SDS011;461;51.436;7.312;2022-08-21T00:40:03;10.40;;;6.70;;
948;SDS011;461;51.436;7.312;2022-08-21T00:42:30;15.60;;;6.87;;
948;SDS011;461;51.436;7.312;2022-08-21T00:44:56;13.80;;;6.60;;
948;SDS011;461;51.436;7.312;2022-08-21T00:47:23;8.87;;;6.23;;
948;SDS011;461;51.436;7.312;2022-08-21T00:49:49;15.10;;;7.00;;
948;SDS011;461;51.436;7.312;2022-08-21T00:52:17;11.50;;;7.00;;
948;SDS011;461;51.436;7.312;2022-08-21T00:54:45;8.57;;;6.93;;
948;SDS011;461;51.436;7.312;2022-08-21T00:57:13;12.20;;;7.10;;
948;SDS011;461;51.436;7.312;2022-08-21T00:59:41;15.97;;;7.50;;
948;SDS011;461;51.436;7.312;2022-08-21T01:02:09;15.93;;;7.70;;
948;SDS011;461;51.436;7.312;2022-08-21T01:04:35;11.83;;;6.60;;
948;SDS011;461;51.436;7.312;2022-08-21T01:07:02;10.30;;;6.77;;
948;SDS011;461;51.436;7.312;2022-08-21T01:09:28;13.50;;;7.27;;
948;SDS011;461;51.436;7.312;2022-08-21T01:11:54;10.07;;;7.40;;
948;SDS011;461;51.436;7.312;2022-08-21T01:14:20;10.20;;;8.00;;
948;SDS011;461;51.436;7.312;2022-08-21T01:16:48;11.90;;;7.17;;
948;SDS011;461;51.436;7.312;2022-08-21T01:19:15;17.53;;;7.20;;
948;SDS011;461;51.436;7.312;2022-08-21T01:21:42;12.67;;;7.23;;
948;SDS011;461;51.436;7.312;2022-08-21T01:24:09;12.30;;;7.03;;
948;SDS011;461;51.436;7.312;2022-08-21T01:26:35;12.60;;;7.03;;
948;SDS011;461;51.436;7.312;2022-08-21T01:29:44;10.23;;;6.53;;
948;SDS011;461;51.436;7.312;2022-08-21T01:31:51;15.73;;;7.00;;
948;SDS011;461;51.436;7.312;2022-08-21T01:34:17;12.23;;;6.97;;
948;SDS011;461;51.436;7.312;2022-08-21T01:36:44;12.17;;;6.53;;
948;SDS011;461;51.436;7.312;2022-08-21T01:39:10;15.20;;;6.93;;
948;SDS011;461;51.436;7.312;2022-08-21T01:41:36;10.00;;;7.20;;
948;SDS011;461;51.436;7.312;2022-08-21T01:44:02;9.60;;;6.27;;
948;SDS011;461;51.436;7.312;2022-08-21T01:46:28;10.90;;;6.70;;
948;SDS011;461;51.436;7.312;2022-08-21T01:48:55;10.27;;;6.87;;
948;SDS011;461;51.436;7.312;2022-08-21T01:51:21;12.07;;;6.80;;
948;SDS011;461;51.436;7.312;2022-08-21T01:53:47;8.50;;;6.80;;
948;SDS011;461;51.436;7.312;2022-08-21T01:56:15;11.90;;;7.43;;
948;SDS011;461;51.436;7.312;2022-08-21T01:58:42;11.43;;;7.93;;
948;SDS011;461;51.436;7.312;2022-08-21T02:01:09;11.10;;;8.07;;
948;SDS011;461;51.436;7.312;2022-08-21T02:03:35;15.50;;;8.23;;
948;SDS011;461;51.436;7.312;2022-08-21T02:06:02;9.80;;;7.17;;
948;SDS011;461;51.436;7.312;2022-08-21T02:08:28;11.70;;;7.67;;
948;SDS011;461;51.436;7.312;2022-08-21T02:10:54;15.30;;;7.73;;
948;SDS011;461;51.436;7.312;2022-08-21T02:13:20;12.77;;;8.03;;
948;SDS011;461;51.436;7.312;2022-08-21T02:15:47;16.87;;;9.10;;
948;SDS011;461;51.436;7.312;2022-08-21T02:18:14;11.33;;;8.00;;
948;SDS011;461;51.436;7.312;2022-08-21T02:20:41;9.97;;;7.27;;
948;SDS011;461;51.436;7.312;2022-08-21T02:23:08;16.90;;;8.03;;
948;SDS011;461;51.436;7.312;2022-08-21T02:25:35;11.53;;;8.20;;
948;SDS011;461;51.436;7.312;2022-08-21T02:28:02;20.30;;;8.57;;
948;SDS011;461;51.436;7.312;2022-08-21T02:30:30;10.43;;;7.60;;
948;SDS011;461;51.436;7.312;2022-08-21T02:32:58;8.57;;;7.73;;
948;SDS011;461;51.436;7.312;2022-08-21T02:35:25;8.53;;;7.60;;
948;SDS011;461;51.436;7.312;2022-08-21T02:37:52;11.50;;;7.67;;
948;SDS011;461;51.436;7.312;2022-08-21T02:40:19;12.60;;;8.50;;
948;SDS011;461;51.436;7.312;2022-08-21T02:42:46;12.37;;;7.60;;
948;SDS011;461;51.436;7.312;2022-08-21T02:45:12;10.97;;;7.80;;
948;SDS011;461;51.436;7.312;2022-08-21T02:47:39;8.53;;;7.20;;
948;SDS011;461;51.436;7.312;2022-08-21T02:50:06;14.37;;;7.00;;
948;SDS011;461;51.436;7.312;2022-08-21T02:52:32;10.10;;;7.67;;
948;SDS011;461;51.436;7.312;2022-08-21T02:54:59;13.57;;;8.00;;
948;SDS011;461;51.436;7.312;2022-08-21T02:57:25;10.57;;;7.80;;
948;SDS011;461;51.436;7.312;2022-08-21T02:59:51;11.67;;;7.23;;
948;SDS011;461;51.436;7.312;2022-08-21T03:02:18;12.90;;;8.03;;
948;SDS011;461;51.436;7.312;2022-08-21T03:04:44;12.20;;;9.20;;
948;SDS011;461;51.436;7.312;2022-08-21T03:07:10;12.33;;;10.27;;
948;SDS011;461;51.436;7.312;2022-08-21T03:09:36;13.30;;;9.73;;
948;SDS011;461;51.436;7.312;2022-08-21T03:12:02;17.40;;;9.80;;
948;SDS011;461;51.436;7.312;2022-08-21T03:14:29;10.40;;;9.30;;
948;SDS011;461;51.436;7.312;2022-08-21T03:16:55;14.43;;;8.37;;
948;SDS011;461;51.436;7.312;2022-08-21T03:19:21;13.77;;;9.07;;
948;SDS011;461;51.436;7.312;2022-08-21T03:21:47;11.03;;;9.07;;
948;SDS011;461;51.436;7.312;2022-08-21T03:24:13;10.87;;;8.53;;
948;SDS011;461;51.436;7.312;2022-08-21T03:26:39;20.03;;;8.23;;
948;SDS011;461;51.436;7.312;2022-08-21T03:29:05;13.40;;;8.70;;
948;SDS011;461;51.436;7.312;2022-08-21T03:31:32;12.53;;;8.80;;
948;SDS011;461;51.436;7.312;2022-08-21T03:33:58;13.93;;;8.17;;
948;SDS011;461;51.436;7.312;2022-08-21T03:36:24;11.70;;;8.47;;
948;SDS011;461;51.436;7.312;2022-08-21T03:38:51;13.67;;;8.33;;
948;SDS011;461;51.436;7.312;2022-08-21T03:41:17;16.50;;;9.03;;
948;SDS011;461;51.436;7.312;2022-08-21T03:43:43;13.23;;;9.13;;
948;SDS011;461;51.436;7.312;2022-08-21T03:46:09;13.17;;;9.10;;
948;SDS011;461;51.436;7.312;2022-08-21T03:48:36;12.70;;;8.97;;
948;SDS011;461;51.436;7.312;2022-08-21T03:51:02;11.10;;;8.93;;
948;SDS011;461;51.436;7.312;2022-08-21T03:53:28;13.33;;;8.97;;
948;SDS011;461;51.436;7.312;2022-08-21T03:55:55;12.87;;;9.13;;
948;SDS011;461;51.436;7.312;2022-08-21T03:58:22;15.77;;;9.90;;
948;SDS011;461;51.436;7.312;2022-08-21T04:00:50;13.60;;;8.93;;
948;SDS011;461;51.436;7.312;2022-08-21T04:03:17;18.23;;;9.33;;
948;SDS011;461;51.436;7.312;2022-08-21T04:05:43;13.53;;;9.50;;
948;SDS011;461;51.436;7.312;2022-08-21T04:08:11;10.80;;;8.50;;
948;SDS011;461;51.436;7.312;2022-08-21T04:10:37;12.07;;;8.30;;
948;SDS011;461;51.436;7.312;2022-08-21T04:13:05;12.47;;;9.07;;
948;SDS011;461;51.436;7.312;2022-08-21T04:15:31;11.20;;;9.07;;
948;SDS011;461;51.436;7.312;2022-08-21T04:17:58;13.97;;;9.20;;
948;SDS011;461;51.436;7.312;2022-08-21T04:20:24;12.80;;;8.97;;
948;SDS011;461;51.436;7.312;2022-08-21T04:22:50;15.37;;;10.30;;
948;SDS011;461;51.436;7.312;2022-08-21T04:25:17;10.53;;;9.17;;
948;SDS011;461;51.436;7.312;2022-08-21T04:27:44;18.87;;;9.90;;
948;SDS011;461;51.436;7.312;2022-08-21T04:30:11;12.23;;;9.80;;
948;SDS011;461;51.436;7.312;2022-08-21T04:32:38;13.43;;;9.00;;
948;SDS011;461;51.436;7.312;2022-08-21T04:35:07;12.23;;;9.17;;
948;SDS011;461;51.436;7.312;2022-08-21T04:37:34;19.60;;;9.93;;
948;SDS011;461;51.436;7.312;2022-08-21T04:40:00;20.90;;;9.10;;
948;SDS011;461;51.436;7.312;2022-08-21T04:42:27;13.70;;;9.50;;
948;SDS011;461;51.436;7.312;2022-08-21T04:44:54;15.30;;;9.60;;
948;SDS011;461;51.436;7.312;2022-08-21T04:47:20;14.87;;;8.47;;
948;SDS011;461;51.436;7.312;2022-08-21T04:49:47;11.03;;;8.30;;
948;SDS011;461;51.436;7.312;2022-08-21T04:52:13;11.70;;;8.97;;
948;SDS011;461;51.436;7.312;2022-08-21T04:54:41;17.23;;;8.40;;
948;SDS011;461;51.436;7.312;2022-08-21T04:57:08;14.50;;;8.10;;
948;SDS011;461;51.436;7.312;2022-08-21T04:59:40;11.00;;;8.60;;
948;SDS011;461;51.436;7.312;2022-08-21T05:02:07;10.57;;;8.67;;
948;SDS011;461;51.436;7.312;2022-08-21T05:04:34;19.50;;;9.53;;
948;SDS011;461;51.436;7.312;2022-08-21T05:07:02;18.70;;;9.33;;
948;SDS011;461;51.436;7.312;2022-08-21T05:09:29;15.33;;;8.93;;
948;SDS011;461;51.436;7.312;2022-08-21T05:11:56;13.80;;;8.50;;
948;SDS011;461;51.436;7.312;2022-08-21T05:14:22;13.63;;;8.97;;
948;SDS011;461;51.436;7.312;2022-08-21T05:16:50;13.70;;;9.13;;
948;SDS011;461;51.436;7.312;2022-08-21T05:19:16;13.93;;;9.60;;
948;SDS011;461;51.436;7.312;2022-08-21T05:21:43;12.80;;;8.37;;
948;SDS011;461;51.436;7.312;2022-08-21T05:24:09;12.23;;;9.57;;
948;SDS011;461;51.436;7.312;2022-08-21T05:26:36;16.80;;;8.90;;
948;SDS011;461;51.436;7.312;2022-08-21T05:29:02;12.30;;;8.07;;
948;SDS011;461;51.436;7.312;2022-08-21T05:31:29;12.93;;;8.93;;
948;SDS011;461;51.436;7.312;2022-08-21T05:33:55;11.70;;;8.60;;
948;SDS011;461;51.436;7.312;2022-08-21T05:36:21;9.13;;;8.20;;
948;SDS011;461;51.436;7.312;2022-08-21T05:38:48;9.90;;;7.43;;
948;SDS011;461;51.436;7.312;2022-08-21T05:41:14;12.53;;;9.00;;
948;SDS011;461;51.436;7.312;2022-08-21T05:43:40;8.27;;;7.30;;
948;SDS011;461;51.436;7.312;2022-08-21T05:46:07;16.73;;;10.10;;
948;SDS011;461;51.436;7.312;2022-08-21T05:48:33;13.03;;;8.43;;
948;SDS011;461;51.436;7.312;2022-08-21T05:51:04;8.73;;;7.20;;
948;SDS011;461;51.436;7.312;2022-08-21T05:53:31;15.17;;;7.63;;
948;SDS011;461;51.436;7.312;2022-08-21T05:55:57;13.30;;;7.33;;
948;SDS011;461;51.436;7.312;2022-08-21T05:58:23;11.73;;;7.70;;
948;SDS011;461;51.436;7.312;2022-08-21T06:00:50;7.80;;;6.87;;
948;SDS011;461;51.436;7.312;2022-08-21T06:03:21;21.10;;;7.23;;
948;SDS011;461;51.436;7.312;2022-08-21T06:09:12;12.50;;;7.43;;
948;SDS011;461;51.436;7.312;2022-08-21T06:11:55;11.23;;;6.27;;
948;SDS011;461;51.436;7.312;2022-08-21T06:14:46;9.60;;;6.80;;
948;SDS011;461;51.436;7.312;2022-08-21T06:17:19;9.53;;;5.63;;
948;SDS011;461;51.436;7.312;2022-08-21T06:19:54;10.50;;;6.13;;
948;SDS011;461;51.436;7.312;2022-08-21T06:22:23;8.40;;;5.23;;
948;SDS011;461;51.436;7.312;2022-08-21T06:24:49;8.87;;;6.17;;
948;SDS011;461;51.436;7.312;2022-08-21T06:27:15;10.83;;;5.67;;
948;SDS011;461;51.436;7.312;2022-08-21T06:29:42;10.23;;;5.43;;
948;SDS011;461;51.436;7.312;2022-08-21T06:32:13;7.77;;;5.20;;
948;SDS011;461;51.436;7.312;2022-08-21T06:34:40;6.97;;;5.30;;
948;SDS011;461;51.436;7.312;2022-08-21T06:37:19;14.17;;;6.17;;
948;SDS011;461;51.436;7.312;2022-08-21T06:39:45;7.70;;;5.33;;
948;SDS011;461;51.436;7.312;2022-08-21T06:42:16;9.20;;;5.13;;
948;SDS011;461;51.436;7.312;2022-08-21T06:44:43;13.40;;;5.80;;
948;SDS011;461;51.436;7.312;2022-08-21T06:47:12;10.20;;;5.77;;
948;SDS011;461;51.436;7.312;2022-08-21T06:49:38;9.50;;;5.60;;
948;SDS011;461;51.436;7.312;2022-08-21T06:52:23;11.80;;;6.07;;
948;SDS011;461;51.436;7.312;2022-08-21T06:54:52;8.80;;;5.50;;
948;SDS011;461;51.436;7.312;2022-08-21T06:57:21;9.90;;;6.63;;
948;SDS011;461;51.436;7.312;2022-08-21T06:59:47;10.27;;;7.27;;
948;SDS011;461;51.436;7.312;2022-08-21T07:02:14;11.87;;;8.33;;
948;SDS011;461;51.436;7.312;2022-08-21T07:04:40;9.17;;;8.17;;
948;SDS011;461;51.436;7.312;2022-08-21T07:07:06;12.00;;;8.07;;
948;SDS011;461;51.436;7.312;2022-08-21T07:09:32;9.03;;;8.03;;
948;SDS011;461;51.436;7.312;2022-08-21T07:11:58;10.67;;;7.60;;
948;SDS011;461;51.436;7.312;2022-08-21T07:14:27;14.63;;;8.90;;
948;SDS011;461;51.436;7.312;2022-08-21T07:16:53;17.30;;;8.20;;
948;SDS011;461;51.436;7.312;2022-08-21T07:19:20;16.43;;;9.20;;
948;SDS011;461;51.436;7.312;2022-08-21T07:21:46;10.63;;;7.30;;
948;SDS011;461;51.436;7.312;2022-08-21T07:24:13;13.40;;;7.70;;
948;SDS011;461;51.436;7.312;2022-08-21T07:26:42;12.10;;;7.50;;
948;SDS011;461;51.436;7.312;2022-08-21T07:29:08;12.47;;;7.33;;
948;SDS011;461;51.436;7.312;2022-08-21T07:31:34;12.00;;;7.00;;
948;SDS011;461;51.436;7.312;2022-08-21T07:34:01;12.10;;;6.77;;
948;SDS011;461;51.436;7.312;2022-08-21T07:36:27;9.20;;;6.63;;
948;SDS011;461;51.436;7.312;2022-08-21T07:38:53;11.70;;;6.40;;
948;SDS011;461;51.436;7.312;2022-08-21T07:41:21;14.53;;;7.10;;
948;SDS011;461;51.436;7.312;2022-08-21T07:43:48;10.90;;;7.20;;
948;SDS011;461;51.436;7.312;2022-08-21T07:46:14;10.87;;;6.53;;
948;SDS011;461;51.436;7.312;2022-08-21T07:48:48;15.10;;;6.80;;
948;SDS011;461;51.436;7.312;2022-08-21T07:51:18;14.83;;;6.70;;
948;SDS011;461;51.436;7.312;2022-08-21T07:53:48;8.83;;;6.70;;
948;SDS011;461;51.436;7.312;2022-08-21T07:56:15;11.53;;;6.37;;
948;SDS011;461;51.436;7.312;2022-08-21T07:58:41;8.43;;;6.60;;
948;SDS011;461;51.436;7.312;2022-08-21T08:01:07;9.70;;;6.60;;
948;SDS011;461;51.436;7.312;2022-08-21T08:03:33;9.87;;;6.03;;
948;SDS011;461;51.436;7.312;2022-08-21T08:05:59;8.97;;;4.40;;
948;SDS011;461;51.436;7.312;2022-08-21T08:08:25;9.53;;;5.80;;
948;SDS011;461;51.436;7.312;2022-08-21T08:10:52;8.40;;;4.43;;
948;SDS011;461;51.436;7.312;2022-08-21T08:13:19;10.80;;;5.17;;
948;SDS011;461;51.436;7.312;2022-08-21T08:15:45;6.07;;;3.77;;
948;SDS011;461;51.436;7.312;2022-08-21T08:18:11;7.90;;;3.80;;
948;SDS011;461;51.436;7.312;2022-08-21T08:20:38;5.40;;;4.17;;
948;SDS011;461;51.436;7.312;2022-08-21T08:23:05;7.37;;;4.00;;
948;SDS011;461;51.436;7.312;2022-08-21T08:25:32;7.57;;;3.17;;
948;SDS011;461;51.436;7.312;2022-08-21T08:27:58;5.33;;;3.73;;
948;SDS011;461;51.436;7.312;2022-08-21T08:30:24;8.17;;;3.63;;
948;SDS011;461;51.436;7.312;2022-08-21T08:32:50;6.20;;;3.33;;
948;SDS011;461;51.436;7.312;2022-08-21T08:35:16;6.00;;;3.20;;
948;SDS011;461;51.436;7.312;2022-08-21T08:37:43;6.60;;;3.67;;
948;SDS011;461;51.436;7.312;2022-08-21T08:40:14;4.43;;;3.67;;
948;SDS011;461;51.436;7.312;2022-08-21T08:42:40;4.80;;;3.00;;
948;SDS011;461;51.436;7.312;2022-08-21T08:45:11;7.20;;;3.33;;
948;SDS011;461;51.436;7.312;2022-08-21T08:47:38;9.40;;;3.47;;
948;SDS011;461;51.436;7.312;2022-08-21T08:52:36;6.80;;;3.03;;
948;SDS011;461;51.436;7.312;2022-08-21T08:55:13;8.63;;;2.97;;
948;SDS011;461;51.436;7.312;2022-08-21T08:57:42;6.77;;;3.13;;
948;SDS011;461;51.436;7.312;2022-08-21T09:00:10;6.10;;;3.67;;
948;SDS011;461;51.436;7.312;2022-08-21T09:02:40;5.93;;;2.80;;
948;SDS011;461;51.436;7.312;2022-08-21T09:05:07;6.30;;;3.20;;
948;SDS011;461;51.436;7.312;2022-08-21T09:12:51;9.07;;;3.50;;
948;SDS011;461;51.436;7.312;2022-08-21T09:15:19;5.90;;;2.90;;
948;SDS011;461;51.436;7.312;2022-08-21T09:23:17;4.80;;;2.80;;
948;SDS011;461;51.436;7.312;2022-08-21T09:25:58;4.60;;;3.00;;
948;SDS011;461;51.436;7.312;2022-08-21T09:28:25;7.50;;;3.13;;
948;SDS011;461;51.436;7.312;2022-08-21T09:30:53;5.20;;;3.23;;
948;SDS011;461;51.436;7.312;2022-08-21T09:33:21;5.70;;;3.00;;
948;SDS011;461;51.436;7.312;2022-08-21T09:35:57;6.37;;;3.00;;
948;SDS011;461;51.436;7.312;2022-08-21T09:38:26;6.47;;;3.07;;
948;SDS011;461;51.436;7.312;2022-08-21T09:41:00;10.67;;;3.83;;
948;SDS011;461;51.436;7.312;2022-08-21T09:43:26;8.30;;;4.30;;
948;SDS011;461;51.436;7.312;2022-08-21T09:48:39;5.80;;;2.77;;
948;SDS011;461;51.436;7.312;2022-08-21T09:51:07;6.70;;;3.00;;
948;SDS011;461;51.436;7.312;2022-08-21T09:53:34;5.53;;;3.20;;
948;SDS011;461;51.436;7.312;2022-08-21T09:56:03;6.47;;;2.80;;
948;SDS011;461;51.436;7.312;2022-08-21T09:58:50;10.97;;;3.27;;
948;SDS011;461;51.436;7.312;2022-08-21T10:01:21;4.80;;;2.43;;
948;SDS011;461;51.436;7.312;2022-08-21T10:03:47;7.53;;;2.97;;
948;SDS011;461;51.436;7.312;2022-08-21T10:06:24;7.83;;;2.77;;
948;SDS011;461;51.436;7.312;2022-08-21T10:09:02;7.00;;;2.70;;
948;SDS011;461;51.436;7.312;2022-08-21T10:11:31;5.20;;;2.70;;
948;SDS011;461;51.436;7.312;2022-08-21T10:14:07;7.20;;;3.20;;
948;SDS011;461;51.436;7.312;2022-08-21T10:16:39;6.60;;;3.17;;
948;SDS011;461;51.436;7.312;2022-08-21T10:22:25;12.10;;;2.90;;
948;SDS011;461;51.436;7.312;2022-08-21T10:24:33;5.50;;;3.40;;
948;SDS011;461;51.436;7.312;2022-08-21T10:27:06;7.20;;;2.87;;
948;SDS011;461;51.436;7.312;2022-08-21T10:32:14;9.03;;;3.23;;
948;SDS011;461;51.436;7.312;2022-08-21T10:43:02;3.67;;;2.50;;
948;SDS011;461;51.436;7.312;2022-08-21T10:48:11;4.47;;;2.47;;
948;SDS011;461;51.436;7.312;2022-08-21T10:50:51;5.67;;;2.53;;
948;SDS011;461;51.436;7.312;2022-08-21T10:53:22;6.10;;;2.73;;
948;SDS011;461;51.436;7.312;2022-08-21T10:55:54;10.13;;;3.40;;
948;SDS011;461;51.436;7.312;2022-08-21T10:58:36;7.10;;;3.50;;
948;SDS011;461;51.436;7.312;2022-08-21T11:01:17;8.00;;;2.60;;
948;SDS011;461;51.436;7.312;2022-08-21T11:03:45;3.80;;;2.57;;
948;SDS011;461;51.436;7.312;2022-08-21T11:06:19;6.43;;;2.47;;
948;SDS011;461;51.436;7.312;2022-08-21T11:08:49;6.80;;;3.10;;
948;SDS011;461;51.436;7.312;2022-08-21T11:11:24;4.33;;;2.30;;
948;SDS011;461;51.436;7.312;2022-08-21T11:13:55;5.93;;;2.60;;
948;SDS011;461;51.436;7.312;2022-08-21T11:18:54;3.70;;;2.50;;
948;SDS011;461;51.436;7.312;2022-08-21T11:26:41;7.33;;;2.50;;
948;SDS011;461;51.436;7.312;2022-08-21T11:29:11;5.27;;;2.07;;
948;SDS011;461;51.436;7.312;2022-08-21T11:34:44;3.00;;;1.70;;
948;SDS011;461;51.436;7.312;2022-08-21T11:37:21;4.63;;;2.50;;
948;SDS011;461;51.436;7.312;2022-08-21T11:39:52;3.57;;;1.97;;
948;SDS011;461;51.436;7.312;2022-08-21T11:45:22;2.50;;;1.53;;
948;SDS011;461;51.436;7.312;2022-08-21T11:50:26;5.07;;;2.13;;
948;SDS011;461;51.436;7.312;2022-08-21T11:52:55;4.80;;;2.40;;
948;SDS011;461;51.436;7.312;2022-08-21T11:55:34;4.90;;;1.60;;
948;SDS011;461;51.436;7.312;2022-08-21T11:58:14;3.57;;;1.93;;
948;SDS011;461;51.436;7.312;2022-08-21T12:00:45;5.97;;;2.40;;
948;SDS011;461;51.436;7.312;2022-08-21T12:03:22;3.30;;;2.43;;
948;SDS011;461;51.436;7.312;2022-08-21T12:05:58;3.70;;;1.63;;
948;SDS011;461;51.436;7.312;2022-08-21T12:13:32;3.87;;;2.07;;
948;SDS011;461;51.436;7.312;2022-08-21T12:16:33;3.90;;;2.47;;
948;SDS011;461;51.436;7.312;2022-08-21T12:19:01;2.40;;;2.07;;
948;SDS011;461;51.436;7.312;2022-08-21T12:21:27;3.20;;;1.90;;
948;SDS011;461;51.436;7.312;2022-08-21T12:24:00;5.13;;;3.03;;
948;SDS011;461;51.436;7.312;2022-08-21T12:26:29;4.97;;;2.40;;
948;SDS011;461;51.436;7.312;2022-08-21T12:29:03;3.80;;;1.93;;
948;SDS011;461;51.436;7.312;2022-08-21T12:31:30;3.90;;;2.00;;
948;SDS011;461;51.436;7.312;2022-08-21T12:33:58;4.30;;;2.03;;
948;SDS011;461;51.436;7.312;2022-08-21T12:36:29;4.30;;;1.80;;
948;SDS011;461;51.436;7.312;2022-08-21T12:39:04;3.73;;;1.80;;
948;SDS011;461;51.436;7.312;2022-08-21T12:41:33;5.50;;;1.97;;
948;SDS011;461;51.436;7.312;2022-08-21T12:44:04;2.60;;;1.70;;
948;SDS011;461;51.436;7.312;2022-08-21T12:46:39;4.50;;;2.23;;
948;SDS011;461;51.436;7.312;2022-08-21T12:49:08;2.70;;;1.73;;
948;SDS011;461;51.436;7.312;2022-08-21T12:52:00;6.23;;;2.10;;
948;SDS011;461;51.436;7.312;2022-08-21T12:54:29;4.53;;;1.40;;
948;SDS011;461;51.436;7.312;2022-08-21T12:56:57;3.33;;;1.40;;
948;SDS011;461;51.436;7.312;2022-08-21T12:59:23;3.23;;;1.70;;
948;SDS011;461;51.436;7.312;2022-08-21T13:01:51;5.10;;;2.07;;
948;SDS011;461;51.436;7.312;2022-08-21T13:04:21;3.10;;;1.77;;
948;SDS011;461;51.436;7.312;2022-08-21T13:06:49;3.93;;;1.87;;
948;SDS011;461;51.436;7.312;2022-08-21T13:09:18;3.20;;;1.40;;
948;SDS011;461;51.436;7.312;2022-08-21T13:11:47;4.33;;;1.70;;
948;SDS011;461;51.436;7.312;2022-08-21T13:14:22;3.70;;;1.60;;
948;SDS011;461;51.436;7.312;2022-08-21T13:16:52;3.83;;;1.63;;
948;SDS011;461;51.436;7.312;2022-08-21T13:19:19;4.60;;;1.87;;
948;SDS011;461;51.436;7.312;2022-08-21T13:21:45;2.47;;;1.80;;
948;SDS011;461;51.436;7.312;2022-08-21T13:24:16;3.77;;;1.50;;
948;SDS011;461;51.436;7.312;2022-08-21T13:26:43;5.57;;;2.00;;
948;SDS011;461;51.436;7.312;2022-08-21T13:29:10;3.23;;;1.77;;
948;SDS011;461;51.436;7.312;2022-08-21T13:31:36;6.50;;;1.90;;
948;SDS011;461;51.436;7.312;2022-08-21T13:34:04;3.00;;;1.73;;
948;SDS011;461;51.436;7.312;2022-08-21T13:36:31;3.30;;;1.67;;
948;SDS011;461;51.436;7.312;2022-08-21T13:38:58;3.80;;;1.90;;
948;SDS011;461;51.436;7.312;2022-08-21T13:41:27;3.77;;;2.17;;
948;SDS011;461;51.436;7.312;2022-08-21T13:44:02;4.53;;;2.03;;
948;SDS011;461;51.436;7.312;2022-08-21T13:46:35;3.53;;;1.87;;
948;SDS011;461;51.436;7.312;2022-08-21T13:49:02;4.10;;;1.97;;
948;SDS011;461;51.436;7.312;2022-08-21T13:51:29;3.70;;;2.10;;
948;SDS011;461;51.436;7.312;2022-08-21T13:53:56;2.80;;;1.50;;
948;SDS011;461;51.436;7.312;2022-08-21T13:56:27;3.03;;;2.00;;
948;SDS011;461;51.436;7.312;2022-08-21T13:58:54;3.73;;;1.73;;
948;SDS011;461;51.436;7.312;2022-08-21T14:01:31;3.27;;;1.70;;
948;SDS011;461;51.436;7.312;2022-08-21T14:04:21;3.57;;;2.10;;
948;SDS011;461;51.436;7.312;2022-08-21T14:06:44;5.60;;;2.10;;
948;SDS011;461;51.436;7.312;2022-08-21T14:09:33;3.30;;;1.63;;
948;SDS011;461;51.436;7.312;2022-08-21T14:11:58;2.63;;;1.60;;
948;SDS011;461;51.436;7.312;2022-08-21T14:14:26;3.23;;;1.73;;
948;SDS011;461;51.436;7.312;2022-08-21T14:16:55;2.20;;;1.57;;
948;SDS011;461;51.436;7.312;2022-08-21T14:19:23;2.77;;;1.80;;
948;SDS011;461;51.436;7.312;2022-08-21T14:21:49;3.87;;;1.60;;
948;SDS011;461;51.436;7.312;2022-08-21T14:26:50;3.43;;;1.93;;
948;SDS011;461;51.436;7.312;2022-08-21T14:29:17;2.33;;;1.40;;
948;SDS011;461;51.436;7.312;2022-08-21T14:31:57;3.60;;;1.70;;
948;SDS011;461;51.436;7.312;2022-08-21T14:34:27;3.37;;;1.70;;
948;SDS011;461;51.436;7.312;2022-08-21T14:36:56;3.73;;;1.43;;
948;SDS011;461;51.436;7.312;2022-08-21T14:39:23;4.60;;;1.60;;
948;SDS011;461;51.436;7.312;2022-08-21T14:41:56;2.27;;;1.73;;
948;SDS011;461;51.436;7.312;2022-08-21T14:44:27;2.60;;;1.50;;
948;SDS011;461;51.436;7.312;2022-08-21T14:46:54;2.97;;;1.60;;
948;SDS011;461;51.436;7.312;2022-08-21T14:49:21;4.40;;;2.47;;
948;SDS011;461;51.436;7.312;2022-08-21T14:51:47;3.03;;;1.60;;
948;SDS011;461;51.436;7.312;2022-08-21T14:54:18;4.93;;;1.87;;
948;SDS011;461;51.436;7.312;2022-08-21T14:56:44;3.23;;;1.77;;
948;SDS011;461;51.436;7.312;2022-08-21T14:59:10;6.50;;;2.20;;
948;SDS011;461;51.436;7.312;2022-08-21T15:01:37;4.23;;;1.70;;
948;SDS011;461;51.436;7.312;2022-08-21T15:04:03;2.13;;;1.40;;
948;SDS011;461;51.436;7.312;2022-08-21T15:06:30;3.40;;;1.70;;
948;SDS011;461;51.436;7.312;2022-08-21T15:08:56;3.60;;;1.70;;
948;SDS011;461;51.436;7.312;2022-08-21T15:11:22;4.80;;;1.60;;
948;SDS011;461;51.436;7.312;2022-08-21T15:13:52;4.87;;;1.67;;
948;SDS011;461;51.436;7.312;2022-08-21T15:16:19;3.67;;;1.50;;
948;SDS011;461;51.436;7.312;2022-08-21T15:18:45;5.63;;;1.97;;
948;SDS011;461;51.436;7.312;2022-08-21T15:21:11;9.87;;;2.00;;
948;SDS011;461;51.436;7.312;2022-08-21T15:23:38;2.20;;;1.53;;
948;SDS011;461;51.436;7.312;2022-08-21T15:26:04;2.00;;;1.70;;
948;SDS011;461;51.436;7.312;2022-08-21T15:28:30;2.87;;;1.90;;
948;SDS011;461;51.436;7.312;2022-08-21T15:30:57;2.83;;;1.60;;
948;SDS011;461;51.436;7.312;2022-08-21T15:33:25;3.63;;;1.90;;
948;SDS011;461;51.436;7.312;2022-08-21T15:35:51;5.33;;;2.27;;
948;SDS011;461;51.436;7.312;2022-08-21T15:38:17;3.90;;;1.80;;
948;SDS011;461;51.436;7.312;2022-08-21T15:40:43;3.47;;;1.77;;
948;SDS011;461;51.436;7.312;2022-08-21T15:43:21;2.83;;;1.70;;
948;SDS011;461;51.436;7.312;2022-08-21T15:45:48;3.27;;;1.90;;
948;SDS011;461;51.436;7.312;2022-08-21T15:48:15;6.27;;;2.30;;
948;SDS011;461;51.436;7.312;2022-08-21T15:50:41;4.80;;;1.87;;
948;SDS011;461;51.436;7.312;2022-08-21T15:53:07;3.23;;;2.00;;
948;SDS011;461;51.436;7.312;2022-08-21T15:55:33;4.93;;;2.43;;
948;SDS011;461;51.436;7.312;2022-08-21T15:58:00;5.60;;;1.90;;
948;SDS011;461;51.436;7.312;2022-08-21T16:00:26;3.37;;;2.67;;
948;SDS011;461;51.436;7.312;2022-08-21T16:02:53;3.93;;;2.00;;
948;SDS011;461;51.436;7.312;2022-08-21T16:05:21;4.50;;;1.97;;
948;SDS011;461;51.436;7.312;2022-08-21T16:07:48;5.13;;;2.10;;
948;SDS011;461;51.436;7.312;2022-08-21T16:10:14;3.57;;;1.77;;
948;SDS011;461;51.436;7.312;2022-08-21T16:12:45;3.40;;;1.90;;
948;SDS011;461;51.436;7.312;2022-08-21T16:15:13;2.17;;;1.70;;
948;SDS011;461;51.436;7.312;2022-08-21T16:17:40;3.40;;;1.73;;
948;SDS011;461;51.436;7.312;2022-08-21T16:20:09;4.20;;;1.67;;
948;SDS011;461;51.436;7.312;2022-08-21T16:22:36;4.60;;;1.80;;
948;SDS011;461;51.436;7.312;2022-08-21T16:25:05;4.43;;;1.80;;
948;SDS011;461;51.436;7.312;2022-08-21T16:27:32;4.70;;;1.80;;
948;SDS011;461;51.436;7.312;2022-08-21T16:30:03;5.53;;;1.97;;
948;SDS011;461;51.436;7.312;2022-08-21T16:32:30;3.63;;;1.73;;
948;SDS011;461;51.436;7.312;2022-08-21T16:34:56;5.20;;;2.00;;
948;SDS011;461;51.436;7.312;2022-08-21T16:37:25;7.47;;;2.10;;
948;SDS011;461;51.436;7.312;2022-08-21T16:39:51;4.80;;;2.00;;
948;SDS011;461;51.436;7.312;2022-08-21T16:42:18;6.93;;;2.30;;
948;SDS011;461;51.436;7.312;2022-08-21T16:44:46;4.23;;;2.00;;
948;SDS011;461;51.436;7.312;2022-08-21T16:47:12;6.63;;;1.80;;